sensor_id;sensor_type;location;lat;lon;timestamp;P1;durP1;ratioP1;P2;durP2;ratioP2
53939;SDS011;39850;43.324;21.916;2024-01-15T00:04:47;824.0;;;526.0;;
53939;SDS011;39850;43.324;21.916;2024-01-15T00:09:23;824.0;;;526.0;;
53939;SDS011;39850;43.324;21.916;2024-01-15T00:14:00;824.0;;;526.0;;
53939;SDS011;39850;43.324;21.916;2024-01-15T00:18:36;676.0;;;430.0;;
53939;SDS011;39850;43.324;21.916;2024-01-15T00:23:12;676.0;;;430.0;;
53939;SDS011;39850;43.324;21.916;2024-01-15T00:27:48;676.0;;;430.0;;
53939;SDS011;39850;43.324;21.916;2024-01-15T00:32:24;676.0;;;430.0;;
53939;SDS011;39850;43.324;21.916;2024-01-15T00:37:00;529.0;;;333.0;;
53939;SDS011;39850;43.324;21.916;2024-01-15T00:41:36;529.0;;;333.0;;
53939;SDS011;39850;43.324;21.916;2024-01-15T01:27:38;327.0;;;203.0;;
53939;SDS011;39850;43.324;21.916;2024-01-15T01:32:15;327.0;;;203.0;;
53939;SDS011;39850;43.324;21.916;2024-01-15T01:36:51;266.0;;;169.0;;
53939;SDS011;39850;43.324;21.916;2024-01-15T01:41:27;266.0;;;169.0;;
53939;SDS011;39850;43.324;21.916;2024-01-15T01:46:06;327.0;;;203.0;;
53939;SDS011;39850;43.324;21.916;2024-01-15T01:50:44;327.0;;;203.0;;
53939;SDS011;39850;43.324;21.916;2024-01-15T01:55:31;268.0;;;169.0;;
53939;SDS011;39850;43.324;21.916;2024-01-15T02:00:13;268.0;;;169.0;;
53939;SDS011;39850;43.324;21.916;2024-01-15T02:04:50;331.0;;;203.0;;
53939;SDS011;39850;43.324;21.916;2024-01-15T02:09:27;331.0;;;203.0;;
53939;SDS011;39850;43.324;21.916;2024-01-15T02:14:04;331.0;;;203.0;;
53939;SDS011;39850;43.324;21.916;2024-01-15T02:46:21;60.0;;;45.0;;
53939;SDS011;39850;43.324;21.916;2024-01-15T02:50:57;60.0;;;45.0;;
53939;SDS011;39850;43.324;21.916;2024-01-15T02:55:33;54.0;;;40.0;;
53939;SDS011;39850;43.324;21.916;2024-01-15T03:00:13;54.0;;;40.0;;
53939;SDS011;39850;43.324;21.916;2024-01-15T03:04:50;47.0;;;36.0;;
53939;SDS011;39850;43.324;21.916;2024-01-15T03:09:27;47.0;;;36.0;;
53939;SDS011;39850;43.324;21.916;2024-01-15T03:14:03;47.0;;;36.0;;
53939;SDS011;39850;43.324;21.916;2024-01-15T03:18:39;46.0;;;36.0;;
53939;SDS011;39850;43.324;21.916;2024-01-15T03:23:16;46.0;;;36.0;;
53939;SDS011;39850;43.324;21.916;2024-01-15T03:27:52;46.0;;;35.0;;
53939;SDS011;39850;43.324;21.916;2024-01-15T03:32:29;46.0;;;35.0;;
53939;SDS011;39850;43.324;21.916;2024-01-15T04:09:29;36.0;;;29.0;;
53939;SDS011;39850;43.324;21.916;2024-01-15T04:14:05;36.0;;;29.0;;
53939;SDS011;39850;43.324;21.916;2024-01-15T04:18:42;33.0;;;27.0;;
53939;SDS011;39850;43.324;21.916;2024-01-15T04:23:18;33.0;;;27.0;;
53939;SDS011;39850;43.324;21.916;2024-01-15T04:27:55;33.0;;;26.0;;
53939;SDS011;39850;43.324;21.916;2024-01-15T04:32:31;33.0;;;26.0;;
53939;SDS011;39850;43.324;21.916;2024-01-15T04:37:07;32.0;;;26.0;;
53939;SDS011;39850;43.324;21.916;2024-01-15T04:41:44;32.0;;;26.0;;
53939;SDS011;39850;43.324;21.916;2024-01-15T04:46:20;33.0;;;26.0;;
53939;SDS011;39850;43.324;21.916;2024-01-15T04:50:56;33.0;;;26.0;;
53939;SDS011;39850;43.324;21.916;2024-01-15T05:27:49;44.0;;;34.0;;
53939;SDS011;39850;43.324;21.916;2024-01-15T05:32:25;44.0;;;34.0;;
53939;SDS011;39850;43.324;21.916;2024-01-15T05:37:02;57.0;;;43.0;;
53939;SDS011;39850;43.324;21.916;2024-01-15T05:41:39;57.0;;;43.0;;
53939;SDS011;39850;43.324;21.916;2024-01-15T05:46:16;70.0;;;52.0;;
53939;SDS011;39850;43.324;21.916;2024-01-15T05:50:53;70.0;;;52.0;;
53939;SDS011;39850;43.324;21.916;2024-01-15T05:55:30;74.0;;;55.0;;
53939;SDS011;39850;43.324;21.916;2024-01-15T06:00:10;74.0;;;55.0;;
53939;SDS011;39850;43.324;21.916;2024-01-15T06:04:47;74.0;;;55.0;;
53939;SDS011;39850;43.324;21.916;2024-01-15T06:09:24;78.0;;;58.0;;
53939;SDS011;39850;43.324;21.916;2024-01-15T06:14:00;78.0;;;58.0;;
53939;SDS011;39850;43.324;21.916;2024-01-15T06:46:22;82.0;;;56.0;;
53939;SDS011;39850;43.324;21.916;2024-01-15T06:50:59;82.0;;;56.0;;
53939;SDS011;39850;43.324;21.916;2024-01-15T06:55:39;92.0;;;60.0;;
53939;SDS011;39850;43.324;21.916;2024-01-15T07:00:18;92.0;;;60.0;;
53939;SDS011;39850;43.324;21.916;2024-01-15T07:04:55;92.0;;;60.0;;
53939;SDS011;39850;43.324;21.916;2024-01-15T07:09:31;93.0;;;62.0;;
53939;SDS011;39850;43.324;21.916;2024-01-15T07:14:07;93.0;;;62.0;;
53939;SDS011;39850;43.324;21.916;2024-01-15T07:18:43;97.0;;;64.0;;
53939;SDS011;39850;43.324;21.916;2024-01-15T07:23:20;97.0;;;64.0;;
53939;SDS011;39850;43.324;21.916;2024-01-15T07:27:56;93.0;;;62.0;;
53939;SDS011;39850;43.324;21.916;2024-01-15T07:32:33;93.0;;;62.0;;
53939;SDS011;39850;43.324;21.916;2024-01-15T08:09:25;136.0;;;94.0;;
53939;SDS011;39850;43.324;21.916;2024-01-15T08:14:01;136.0;;;94.0;;
53939;SDS011;39850;43.324;21.916;2024-01-15T08:18:38;110.0;;;78.0;;
53939;SDS011;39850;43.324;21.916;2024-01-15T08:23:15;110.0;;;78.0;;
53939;SDS011;39850;43.324;21.916;2024-01-15T08:27:52;99.0;;;73.0;;
53939;SDS011;39850;43.324;21.916;2024-01-15T08:32:28;99.0;;;73.0;;
53939;SDS011;39850;43.324;21.916;2024-01-15T08:37:04;91.0;;;68.0;;
53939;SDS011;39850;43.324;21.916;2024-01-15T08:41:41;91.0;;;68.0;;
53939;SDS011;39850;43.324;21.916;2024-01-15T08:46:17;99.0;;;73.0;;
53939;SDS011;39850;43.324;21.916;2024-01-15T08:50:55;99.0;;;73.0;;
53939;SDS011;39850;43.324;21.916;2024-01-15T08:55:32;99.0;;;73.0;;
53939;SDS011;39850;43.324;21.916;2024-01-15T09:27:52;160.0;;;117.0;;
53939;SDS011;39850;43.324;21.916;2024-01-15T09:32:29;160.0;;;117.0;;
53939;SDS011;39850;43.324;21.916;2024-01-15T09:37:05;188.0;;;136.0;;
53939;SDS011;39850;43.324;21.916;2024-01-15T09:41:44;188.0;;;136.0;;
53939;SDS011;39850;43.324;21.916;2024-01-15T09:46:21;164.0;;;119.0;;
53939;SDS011;39850;43.324;21.916;2024-01-15T09:50:58;164.0;;;119.0;;
53939;SDS011;39850;43.324;21.916;2024-01-15T09:55:37;164.0;;;119.0;;
53939;SDS011;39850;43.324;21.916;2024-01-15T10:00:18;190.0;;;137.0;;
53939;SDS011;39850;43.324;21.916;2024-01-15T10:04:55;190.0;;;137.0;;
53939;SDS011;39850;43.324;21.916;2024-01-15T10:09:31;164.0;;;119.0;;
53939;SDS011;39850;43.324;21.916;2024-01-15T10:14:09;164.0;;;119.0;;
53939;SDS011;39850;43.324;21.916;2024-01-15T10:46:34;66.0;;;54.0;;
53939;SDS011;39850;43.324;21.916;2024-01-15T10:51:11;66.0;;;54.0;;
53939;SDS011;39850;43.324;21.916;2024-01-15T10:55:51;66.0;;;54.0;;
53939;SDS011;39850;43.324;21.916;2024-01-15T11:00:29;66.0;;;54.0;;
53939;SDS011;39850;43.324;21.916;2024-01-15T11:05:07;66.0;;;54.0;;
53939;SDS011;39850;43.324;21.916;2024-01-15T11:09:43;62.0;;;49.0;;
53939;SDS011;39850;43.324;21.916;2024-01-15T11:14:47;62.0;;;49.0;;
53939;SDS011;39850;43.324;21.916;2024-01-15T11:19:25;57.0;;;44.0;;
53939;SDS011;39850;43.324;21.916;2024-01-15T11:24:03;57.0;;;44.0;;
53939;SDS011;39850;43.324;21.916;2024-01-15T11:28:58;57.0;;;44.0;;
53939;SDS011;39850;43.324;21.916;2024-01-15T11:33:49;57.0;;;44.0;;
53939;SDS011;39850;43.324;21.916;2024-01-15T12:07:11;746.0;;;578.0;;
53939;SDS011;39850;43.324;21.916;2024-01-15T12:12:19;746.0;;;578.0;;
53939;SDS011;39850;43.324;21.916;2024-01-15T12:17:00;610.0;;;466.0;;
53939;SDS011;39850;43.324;21.916;2024-01-15T12:21:40;610.0;;;466.0;;
53939;SDS011;39850;43.324;21.916;2024-01-15T12:26:16;610.0;;;466.0;;
53939;SDS011;39850;43.324;21.916;2024-01-15T12:30:55;473.0;;;354.0;;
53939;SDS011;39850;43.324;21.916;2024-01-15T12:35:35;473.0;;;354.0;;
53939;SDS011;39850;43.324;21.916;2024-01-15T12:40:20;386.0;;;282.0;;
53939;SDS011;39850;43.324;21.916;2024-01-15T12:45:01;386.0;;;282.0;;
53939;SDS011;39850;43.324;21.916;2024-01-15T12:49:38;298.0;;;209.0;;
53939;SDS011;39850;43.324;21.916;2024-01-15T12:54:15;298.0;;;209.0;;
53939;SDS011;39850;43.324;21.916;2024-01-15T13:31:07;146.0;;;109.0;;
53939;SDS011;39850;43.324;21.916;2024-01-15T13:35:43;146.0;;;109.0;;
53939;SDS011;39850;43.324;21.916;2024-01-15T13:40:20;188.0;;;139.0;;
53939;SDS011;39850;43.324;21.916;2024-01-15T13:44:56;188.0;;;139.0;;
53939;SDS011;39850;43.324;21.916;2024-01-15T13:49:32;229.0;;;169.0;;
53939;SDS011;39850;43.324;21.916;2024-01-15T13:54:09;229.0;;;169.0;;
53939;SDS011;39850;43.324;21.916;2024-01-15T13:58:45;268.0;;;190.0;;
53939;SDS011;39850;43.324;21.916;2024-01-15T14:03:22;268.0;;;190.0;;
53939;SDS011;39850;43.324;21.916;2024-01-15T14:07:58;308.0;;;211.0;;
53939;SDS011;39850;43.324;21.916;2024-01-15T14:12:35;308.0;;;211.0;;
53939;SDS011;39850;43.324;21.916;2024-01-15T14:49:25;167.0;;;124.0;;
53939;SDS011;39850;43.324;21.916;2024-01-15T14:54:02;167.0;;;124.0;;
53939;SDS011;39850;43.324;21.916;2024-01-15T14:58:38;198.0;;;144.0;;
53939;SDS011;39850;43.324;21.916;2024-01-15T15:03:14;198.0;;;144.0;;
53939;SDS011;39850;43.324;21.916;2024-01-15T15:07:51;167.0;;;124.0;;
53939;SDS011;39850;43.324;21.916;2024-01-15T15:12:28;167.0;;;124.0;;
53939;SDS011;39850;43.324;21.916;2024-01-15T15:17:05;184.0;;;134.0;;
53939;SDS011;39850;43.324;21.916;2024-01-15T15:21:41;184.0;;;134.0;;
53939;SDS011;39850;43.324;21.916;2024-01-15T15:26:18;184.0;;;134.0;;
53939;SDS011;39850;43.324;21.916;2024-01-15T15:30:54;138.0;;;103.0;;
53939;SDS011;39850;43.324;21.916;2024-01-15T15:35:31;138.0;;;103.0;;
53939;SDS011;39850;43.324;21.916;2024-01-15T16:07:48;96.0;;;76.0;;
53939;SDS011;39850;43.324;21.916;2024-01-15T16:12:25;96.0;;;76.0;;
53939;SDS011;39850;43.324;21.916;2024-01-15T16:17:01;96.0;;;76.0;;
53939;SDS011;39850;43.324;21.916;2024-01-15T16:21:39;72.0;;;58.0;;
53939;SDS011;39850;43.324;21.916;2024-01-15T16:26:15;72.0;;;58.0;;
53939;SDS011;39850;43.324;21.916;2024-01-15T16:30:51;49.0;;;41.0;;
53939;SDS011;39850;43.324;21.916;2024-01-15T16:35:28;49.0;;;41.0;;
53939;SDS011;39850;43.324;21.916;2024-01-15T16:40:09;43.0;;;36.0;;
53939;SDS011;39850;43.324;21.916;2024-01-15T16:44:46;43.0;;;36.0;;
53939;SDS011;39850;43.324;21.916;2024-01-15T16:49:23;37.0;;;32.0;;
53939;SDS011;39850;43.324;21.916;2024-01-15T16:53:59;37.0;;;32.0;;
53939;SDS011;39850;43.324;21.916;2024-01-15T17:30:51;421.0;;;305.0;;
53939;SDS011;39850;43.324;21.916;2024-01-15T17:35:28;421.0;;;305.0;;
53939;SDS011;39850;43.324;21.916;2024-01-15T17:40:09;370.0;;;266.0;;
53939;SDS011;39850;43.324;21.916;2024-01-15T17:44:46;370.0;;;266.0;;
53939;SDS011;39850;43.324;21.916;2024-01-15T17:49:23;318.0;;;228.0;;
53939;SDS011;39850;43.324;21.916;2024-01-15T17:54:00;318.0;;;228.0;;
53939;SDS011;39850;43.324;21.916;2024-01-15T17:58:37;280.0;;;204.0;;
53939;SDS011;39850;43.324;21.916;2024-01-15T18:03:13;280.0;;;204.0;;
53939;SDS011;39850;43.324;21.916;2024-01-15T18:07:49;241.0;;;180.0;;
53939;SDS011;39850;43.324;21.916;2024-01-15T18:12:26;241.0;;;180.0;;
53939;SDS011;39850;43.324;21.916;2024-01-15T18:17:03;241.0;;;180.0;;
53939;SDS011;39850;43.324;21.916;2024-01-15T18:49:21;499.0;;;382.0;;
53939;SDS011;39850;43.324;21.916;2024-01-15T18:53:57;499.0;;;382.0;;
53939;SDS011;39850;43.324;21.916;2024-01-15T18:58:34;402.0;;;304.0;;
53939;SDS011;39850;43.324;21.916;2024-01-15T19:03:10;402.0;;;304.0;;
53939;SDS011;39850;43.324;21.916;2024-01-15T19:07:47;402.0;;;304.0;;
53939;SDS011;39850;43.324;21.916;2024-01-15T19:12:23;346.0;;;258.0;;
53939;SDS011;39850;43.324;21.916;2024-01-15T19:17:03;346.0;;;258.0;;
53939;SDS011;39850;43.324;21.916;2024-01-15T19:21:39;326.0;;;242.0;;
53939;SDS011;39850;43.324;21.916;2024-01-15T19:26:18;326.0;;;242.0;;
53939;SDS011;39850;43.324;21.916;2024-01-15T19:30:55;346.0;;;258.0;;
53939;SDS011;39850;43.324;21.916;2024-01-15T19:35:32;346.0;;;258.0;;
53939;SDS011;39850;43.324;21.916;2024-01-15T20:12:26;288.0;;;212.0;;
53939;SDS011;39850;43.324;21.916;2024-01-15T20:17:03;288.0;;;212.0;;
53939;SDS011;39850;43.324;21.916;2024-01-15T20:21:40;240.0;;;181.0;;
53939;SDS011;39850;43.324;21.916;2024-01-15T20:26:16;240.0;;;181.0;;
53939;SDS011;39850;43.324;21.916;2024-01-15T20:30:53;288.0;;;212.0;;
53939;SDS011;39850;43.324;21.916;2024-01-15T20:35:29;288.0;;;212.0;;
53939;SDS011;39850;43.324;21.916;2024-01-15T20:40:09;269.0;;;207.0;;
53939;SDS011;39850;43.324;21.916;2024-01-15T20:44:46;269.0;;;207.0;;
53939;SDS011;39850;43.324;21.916;2024-01-15T20:49:22;345.0;;;264.0;;
53939;SDS011;39850;43.324;21.916;2024-01-15T20:53:59;345.0;;;264.0;;
53939;SDS011;39850;43.324;21.916;2024-01-15T21:30:52;764.0;;;588.0;;
53939;SDS011;39850;43.324;21.916;2024-01-15T21:35:29;764.0;;;588.0;;
53939;SDS011;39850;43.324;21.916;2024-01-15T21:40:07;781.0;;;593.0;;
53939;SDS011;39850;43.324;21.916;2024-01-15T21:44:44;781.0;;;593.0;;
53939;SDS011;39850;43.324;21.916;2024-01-15T21:49:21;764.0;;;588.0;;
53939;SDS011;39850;43.324;21.916;2024-01-15T21:54:00;764.0;;;588.0;;
53939;SDS011;39850;43.324;21.916;2024-01-15T21:58:36;506.0;;;377.0;;
53939;SDS011;39850;43.324;21.916;2024-01-15T22:03:13;506.0;;;377.0;;
53939;SDS011;39850;43.324;21.916;2024-01-15T22:07:49;506.0;;;377.0;;
53939;SDS011;39850;43.324;21.916;2024-01-15T22:12:26;213.0;;;156.0;;
53939;SDS011;39850;43.324;21.916;2024-01-15T22:17:03;213.0;;;156.0;;
53939;SDS011;39850;43.324;21.916;2024-01-15T22:49:23;88.0;;;68.0;;
53939;SDS011;39850;43.324;21.916;2024-01-15T22:53:59;88.0;;;68.0;;
53939;SDS011;39850;43.324;21.916;2024-01-15T22:58:35;88.0;;;68.0;;
53939;SDS011;39850;43.324;21.916;2024-01-15T23:03:12;196.0;;;148.0;;
53939;SDS011;39850;43.324;21.916;2024-01-15T23:07:49;196.0;;;148.0;;
53939;SDS011;39850;43.324;21.916;2024-01-15T23:12:26;271.0;;;197.0;;
53939;SDS011;39850;43.324;21.916;2024-01-15T23:17:05;271.0;;;197.0;;
53939;SDS011;39850;43.324;21.916;2024-01-15T23:21:42;288.0;;;213.0;;
53939;SDS011;39850;43.324;21.916;2024-01-15T23:26:20;288.0;;;213.0;;
53939;SDS011;39850;43.324;21.916;2024-01-15T23:30:56;271.0;;;197.0;;
53939;SDS011;39850;43.324;21.916;2024-01-15T23:35:32;271.0;;;197.0;;
